• Join FlightAware (Why Join?)
  • Login
  • US Flag 
02:21PM EDT


 

Airport Tracker/Info


-or-


 

Live Flight TrackerFlight Track Log ✈ N935SS ✈ 19-Apr-2013 ✈ TXKF / BDA - KHPN

Flight Track Log - Related Links

Times and Time Zones

All times are in EDT time to prevent confusion due to time zone crossing. See the N935SS flight status page for this flight to view local times or setup timezone preferences in your user account.

Time Position Orientation Groundspeed Altitude Reporting Facility
EDT Latitude Longitude Course Direction KTS MPH feet Rate Location/Type
03:21PM 32.3667 -64.6833 327° Northwest 268 308 2,000  Level New York Oceanic (ODAPS)
03:23PM 37.6370 -69.8117 323° Northwest  Level Estimated
03:24PM 37.7076 -69.8869 320° Northwest  Level Estimated
03:25PM 37.7783 -69.9622 320° Northwest  Level Estimated
03:25PM 32.3667 -64.6833 327° Northwest 268 308 15,000  Level New York Oceanic (ODAPS)
03:26PM 37.8488 -70.0376 320° Northwest  Level Estimated
03:27PM 37.9193 -70.1132 320° Northwest  Level Estimated
03:28PM 32.8975 -65.0919 327° Northwest 268 308 2,000  Level FlightAware Transoceanic
03:29PM 32.9800 -65.1561 327° Northwest 268 308 2,000  Level FlightAware Transoceanic
03:30PM 33.0624 -65.2204 327° Northwest 268 308 2,000  Level FlightAware Transoceanic
03:31PM 33.1447 -65.2848 327° Northwest 268 308 2,000 6,480 Level FlightAware Transoceanic
03:32PM 33.2492 -65.3667 327° Northwest 268 308 15,000 6,480 Climbing FlightAware Transoceanic
03:33PM 33.3347 -65.4339 327° Northwest 268 308 15,000  Level FlightAware Transoceanic
03:34PM 33.4201 -65.5013 327° Northwest 268 308 15,000  Level FlightAware Transoceanic
03:35PM 33.5055 -65.5687 327° Northwest 268 308 15,000  Level FlightAware Transoceanic
03:36PM 33.5909 -65.6363 327° Northwest 268 308 15,000 13,080 Level FlightAware Transoceanic
03:36PM 32.3667 -64.6833 327° Northwest 415 478 34,000  Climbing New York Oceanic (ODAPS)
03:37PM 33.6762 -65.7040 327° Northwest 268 308 15,000 -12,300 Descending FlightAware Transoceanic
03:38PM 33.7615 -65.7719 326° Northwest 268 308 15,000  Level FlightAware Transoceanic
03:39PM 34.0635 -66.0136 326° Northwest 268 308 15,000  Level FlightAware Transoceanic
03:40PM 34.1641 -66.0946 326° Northwest 268 308 15,000  Level FlightAware Transoceanic
03:41PM 34.2646 -66.1757 326° Northwest 268 308 15,000 9,480 Level FlightAware Transoceanic
03:42PM 34.3870 -66.2747 326° Northwest 415 478 34,000 16,980 Climbing FlightAware Transoceanic
03:42PM 34.4000 -66.3000 327° Northwest 505 581 34,000  Level New York Oceanic (ODAPS)
03:42PM 34.4000 -66.3000 327° Northwest 404 465 34,000  Level New York Oceanic (ODAPS)
03:43PM 34.4830 -66.3528 326° Northwest 415 478 34,000  Level FlightAware Transoceanic
03:44PM 34.5790 -66.4310 326° Northwest 415 478 34,000  Level FlightAware Transoceanic
03:45PM 34.6749 -66.5094 326° Northwest 415 478 34,000  Level FlightAware Transoceanic
03:46PM 34.7708 -66.5879 326° Northwest 415 478 34,000  Level FlightAware Transoceanic
03:47PM 34.8420 -66.6596 320° Northwest  Level Estimated
03:48PM 34.9700 -66.7624 323° Northwest 404 465 34,000  Level FlightAware Transoceanic
03:49PM 35.0732 -66.8584 323° Northwest 404 465 34,000  Level FlightAware Transoceanic
03:50PM 35.1763 -66.9547 323° Northwest 404 465 34,000  Level FlightAware Transoceanic
03:50PM 34.8667 -66.6667 323° Northwest 465 535 34,000  Level New York Oceanic (ODAPS)
03:51PM 35.2794 -67.0512 323° Northwest 404 465 34,000  Level FlightAware Transoceanic
03:52PM 35.3824 -67.1479 323° Northwest 404 465 34,000  Level FlightAware Transoceanic
03:53PM 35.4853 -67.2449 322° Northwest 404 465 34,000  Level FlightAware Transoceanic
03:54PM 35.5881 -67.3421 322° Northwest 404 465 34,000  Level FlightAware Transoceanic
03:55PM 35.6909 -67.4396 322° Northwest 404 465 34,000  Level FlightAware Transoceanic
03:56PM 35.7935 -67.5374 322° Northwest 465 535 34,000  Level FlightAware Transoceanic
03:57PM 35.8961 -67.6353 322° Northwest 465 535 34,000  Level FlightAware Transoceanic
03:58PM 35.9987 -67.7336 322° Northwest 465 535 34,000  Level FlightAware Transoceanic
03:59PM 36.1011 -67.8321 322° Northwest 465 535 34,000  Level FlightAware Transoceanic
04:00PM 36.2035 -67.9308 322° Northwest 465 535 34,000  Level FlightAware Transoceanic
04:01PM 36.3057 -68.0298 322° Northwest 465 535 34,000  Level FlightAware Transoceanic
04:02PM 36.4079 -68.1291 322° Northwest 465 535 34,000  Level FlightAware Transoceanic
04:03PM 36.5100 -68.2287 322° Northwest 465 535 34,000  Level FlightAware Transoceanic
04:04PM 36.6121 -68.3285 322° Northwest 465 535 34,000  Level FlightAware Transoceanic
04:05PM 36.7140 -68.4285 322° Northwest 465 535 34,000  Level FlightAware Transoceanic
04:06PM 36.8159 -68.5288 322° Northwest 465 535 34,000  Level FlightAware Transoceanic
04:07PM 36.9176 -68.6294 322° Northwest 465 535 34,000  Level FlightAware Transoceanic
04:08PM 37.0193 -68.7303 322° Northwest 465 535 34,000  Level FlightAware Transoceanic
04:09PM 37.1209 -68.8314 322° Northwest 465 535 34,000  Level FlightAware Transoceanic
04:10PM 37.2225 -68.9328 321° Northwest 465 535 34,000  Level FlightAware Transoceanic
04:11PM 37.3239 -69.0345 321° Northwest 465 535 34,000  Level FlightAware Transoceanic
04:12PM 37.4252 -69.1365 321° Northwest 465 535 34,000  Level FlightAware Transoceanic
04:13PM 37.5265 -69.2387 321° Northwest 465 535 34,000  Level FlightAware Transoceanic
04:14PM 37.6277 -69.3412 321° Northwest 465 535 34,000  Level FlightAware Transoceanic
04:15PM 37.7287 -69.4440 321° Northwest 465 535 34,000  Level FlightAware Transoceanic
04:16PM 37.8297 -69.5471 321° Northwest 465 535 34,000  Level FlightAware Transoceanic
04:17PM 37.9306 -69.6504 321° Northwest 465 535 34,000  Level FlightAware Transoceanic
04:17PM 37.9203 -69.6350 298° West 466 536 34,000  Level New York Center
04:18PM 38.0314 -69.7541 321° Northwest 465 535 34,000  Level FlightAware Transoceanic
04:18PM 38.0153 -69.7392 319° Northwest 453 521 34,000  Level New York Center
04:19PM 38.1322 -69.8580 321° Northwest 465 535 34,000  Level FlightAware Transoceanic
04:19PM 38.1244 -69.8458 322° Northwest 458 527 34,000  Level New York Center
04:20PM 38.2328 -69.9622 321° Northwest 465 535 34,000  Level FlightAware Transoceanic
04:20PM 38.2169 -69.9372 322° Northwest 464 534 34,000  Level New York Center
04:21PM 38.3333 -70.0667 298° West 465 535 34,000  Level FlightAware Transoceanic
04:21PM 38.3197 -70.0314 324° Northwest 464 534 34,000  Level New York Center
04:22PM 38.3916 -70.2069 298° West 465 535 34,000  Level FlightAware Transoceanic
04:22PM 38.4244 -70.1258 325° Northwest 464 534 34,000  Level New York Center
04:23PM 38.5269 -70.2206 324° Northwest 459 528 34,000  Level New York Center
04:24PM 38.6275 -70.3211 322° Northwest 459 528 34,000  Level New York Center
04:25PM 38.7300 -70.4161 324° Northwest 464 534 34,000  Level New York Center
04:26PM 38.8344 -70.5117 325° Northwest 464 534 34,000  Level New York Center
04:27PM 38.9347 -70.6131 322° Northwest 464 534 34,000  Level New York Center
04:28PM 39.0389 -70.7089 324° Northwest 464 534 34,000  Level New York Center
04:29PM 39.1433 -70.8053 324° Northwest 464 534 34,000  Level New York Center
04:30PM 39.2514 -70.9181 321° Northwest 464 534 34,000  Level New York Center
04:31PM 39.3450 -71.0097 323° Northwest 464 534 34,000 -660 Level New York Center
04:32PM 39.4492 -71.1094 324° Northwest 464 534 32,700 -1,680 Descending New York Center
04:33PM 39.5528 -71.2125 323° Northwest 464 534 30,700 -2,220 Descending New York Center
04:35PM 39.7583 -71.4164 323° Northwest 464 534 26,100 -2,460 Descending New York Center
04:36PM 39.8619 -71.5175 323° Northwest 469 540 23,400 -2,760 Descending New York Center
04:37PM 39.9611 -71.6214 321° Northwest 469 540 20,700 -2,580 Descending New York Center
04:40PM 40.1878 -71.8508 322° Northwest 421 484 14,200 -2,100 Descending Boston Center
04:41PM 40.2925 -71.9586 322° Northwest 414 476 13,100 -600 Descending Boston Center
04:42PM 40.3803 -72.0450 323° Northwest 403 464 13,000 -1,020 Descending Boston Center
04:43PM 40.4681 -72.1344 322° Northwest 398 458 11,200 -600 Descending Boston Center
04:45PM 40.6833 -72.3667 321° Northwest 393 452 11,000 -180 Descending New York TRACON
04:46PM 40.7667 -72.4500 323° Northwest 360 414 10,600 -1,020 Descending New York TRACON
04:47PM 40.8500 -72.5167 329° Northwest 309 356 9,000 -1,800 Descending New York TRACON
04:48PM 40.9000 -72.5833 315° West 294 338 7,100 -1,020 Descending New York TRACON
04:49PM 40.9667 -72.6500 323° Northwest 280 322 7,000 -360 Descending New York TRACON
04:50PM 41.0167 -72.7167 315° West 282 325 6,400 -1,380 Descending New York TRACON
04:51PM 41.0500 -72.8000 298° West 268 308 4,300 -1,200 Descending New York TRACON
04:52PM 41.0833 -72.8833 298° West 262 302 4,000 -180 Descending New York TRACON
04:53PM 41.1167 -72.9833 294° West 265 305 4,000  Level New York TRACON
04:54PM 41.1333 -73.0667 285° West 258 297 4,000  Level New York TRACON
04:55PM 41.1667 -73.1500 298° West 254 292 4,000  Level New York TRACON
04:56PM 41.1667 -73.2500 270° West 251 289 4,000  Level New York TRACON
04:57PM 41.1833 -73.3333 285° West 249 287 4,000  Level New York TRACON
04:58PM 41.1833 -73.4167 270° West 218 251 4,000  Level New York TRACON
04:59PM 41.1833 -73.4833 270° West 179 206 4,000 -60 Level New York TRACON
05:00PM 41.2000 -73.5500 288° West 182 209 3,900 -540 Descending New York TRACON
05:01PM 41.2000 -73.6333 270° West 188 216 3,000 -540 Descending New York TRACON
05:02PM 41.2000 -73.7000 270° West 192 221 2,900 -540 Descending New York TRACON
05:03PM 41.2500 -73.7333 333° Northwest 213 245 2,000 -900 Descending New York TRACON